Latest Observation

108 Stations

10 Minute Data
as of 8/31/26 5:26 AM PDT
Station Date Time Temp (°F) RH (%) Dew Pt (°F) Wind Spd (mph) Wind Dir (°) Wind Gust (mph) Wind Gst Dir (°) Latest Rain (In) Soil Moist (%) Soil Temp (°F) Daily Rain (In) Daily Min Temp (°F) Daily Max Temp (°F) Daily Max Wind (mph)
Hobart Mills 8/31/26 0520 41.5   4.5 59   11 28.4   0.1 1.9   0.1 W | 275 3.0   0.1 W | 274 0.00 7.7   0.0 67.1   0.3 0.00 41.4   4.5 47.3   3.2 4.2   0.1
Prosser Dam 8/31/26 0520 40.1   5.9 84   7 35.7   3.8 0.9   0.1 SW | 235 2.0   0.4 WSW | 243 0.00 5.4   0.0 64.1   0.0 0.00 39.7   5.8 48.1   4.1 3.1   2.1
West Incline Village 8/31/26 0520 53.8   1.4 68   37 43.5   21.1 3.1   0.1 NNE | 25 3.5   0.6 NNE | 27 0.00 11.9   0.1 59.2   0.6 0.00 53.3   1.9 57.6   3.8 4.1   2.5
Incline Village (Fairview Blvd) 8/31/26 0520 55.8   1.3 76   47 48.3   25.3 0.0   1.2 N | 0 0.0   3.2 NE | 42 0.00 7.7   0.0 72.3   0.6 0.00 55.6   1.3 59.2   2.5 2.4   2.9
Incline Village (Diamond Peak) 8/31/26 0520 56.1   4.2 42   10 33.4   10.5 1.1   1.1 WSW | 248 2.9   2.9 SW | 236 0.00 2.5   0.0 62.2   0.2 0.00 54.8   3.2 57.5   4.3 3.4   0.2
Incline Village (Mill Creek) 5/30/36 1610 74.5 37 46.5 0.5 SW | 236 1.7 SSW | 213 0.00 0.0 0.0 0.00 74.4 74.5 1.7
Incline Village (Lakeshore Blvd) 8/31/26 0520 47.7   4.2 72   6 39.1   6.3 1.0   0.0 NE | 40 1.9   0.5 ENE | 68 0.00 18.5   3.0 59.8   0.9 0.00 47.5   4.2 51.6   3.1 2.9   0.7
Glenbrook 8/31/26 0520 50.4   2.9 69   14 40.6   8.4 2.6   0.9 ESE | 118 3.6   1.6 ESE | 121 0.00 42.8   0.2 59.7   0.3 0.00 50.1   3.4 54.0   1.8 5.0   2.5
Zephyr Cove 8/31/26 0520 52.3   0.4 62   26 39.6   13.7 0.0   0.0 N | 0 0.0   0.0 E | 89 0.00 2.7   0.1 64.1   2.6 0.00 51.9   0.5 55.9   0.4 1.6   1.0
Kingsbury Grade 8/31/26 0520 49.8   1.4 54   14 34.0   8.9 1.0   2.2 NNE | 17 3.6   3.1 NNE | 12 0.00 2.9   0.6 68.6   1.4 0.00 49.3   2.5 53.5   2.1 4.6   2.5
South Daggett Pass (Ridge) 8/31/26 0520 55.7   3.8 43   2 33.5   4.4 0.0   3.1 WSW | 257 0.6   5.0 WSW | 256 0.00 2.2   0.0 64.4   0.3 0.00 55.1   3.3 60.0   3.6 3.4   7.1
Palomino Valley 8/31/26 0520 50.8   3.4 44   5 30.0   0.4 0.1   0.3 S | 171 1.2   1.5 SSE | 156 0.00 6.7   0.0 78.3   0.9 0.00 48.8   2.8 60.2   3.7 5.6   5.7
East Cold Springs 8/31/26 0520 58.0   3.3 38   0 32.6   2.9 8.3   2.1 W | 277 10.6   3.0 W | 279 0.00 1.6   0.0 72.1   0.2 0.00 57.4   5.5 63.1   6.1 11.2   0.4
Peavine 8/22/26 1700 81.6   1.5 27   0 44.0   1.5 22.7   10.4 SW | 225 48.4   26.2 SW | 220 0.00 - 53.4   0.0 0.00 69.4   2.1 87.6   2.1 48.4   26.2
West Verdi Peak 8/31/26 0620 52.0   0.0 53   10 35.6   5.4 1.7   1.4 NNW | 343 2.5   0.5 N | 354 0.00 6.6   0.1 70.5   0.2 0.00 51.4   0.8 59.2   4.0 5.8   0.5
West Verdi 8/31/26 0520 52.9   3.5 53   2 36.3   4.2 0.0   1.1 N | 0 0.0   2.6 E | 101 0.00 6.3   0.1 81.5   0.6 0.00 52.8   5.2 60.4   0.5 5.5   8.1
South Verdi 8/31/26 0520 61.1   7.2 36   1 34.0   5.8 8.4   4.3 S | 183 15.8   8.2 S | 187 0.00 10.6   0.1 72.6   2.3 0.00 58.2   6.5 64.0   2.4 15.8   0.9
Northwest Reno 8/31/26 0520 61.6   4.4 36   2 34.5   2.4 0.3   4.9 NNW | 328 2.6   4.1 NW | 320 0.00 25.3   0.0 78.1   1.2 0.00 61.2   5.3 65.4   0.1 6.6   9.7
North Lawton 8/28/26 1620 63.8   17.1 74   52 55.4   16.5 1.5   11.6 ESE | 121 5.1   19.0 SE | 124 0.00 - 78.2   0.0 0.05 59.2   7.5 71.9   13.3 20.4   4.6
West Reno (Mogul) 8/31/26 0520 58.7   4.9 42   0 35.9   4.5 4.7   0.5 WNW | 296 8.4   0.4 NW | 311 0.00 19.7   0.1 79.4   0.2 0.00 56.0   3.3 63.5   3.2 9.6   1.6
Caughlin (Hunter Lake Trail) 8/31/26 0520 60.7   5.6 40   3 36.0   3.3 3.8   3.2 SSW | 208 5.2   3.5 SSW | 200 0.00 16.6   0.1 74.8   0.2 0.00 60.4   6.4 66.3   4.6 8.8   2.4
ArrowCreek 8/31/26 0520 59.6   6.3 39   8 34.7   1.0 4.7   0.8 WSW | 243 8.7   2.5 WSW | 254 0.00 - 32.0   0.0 0.00 55.6   2.9 65.4   7.1 9.6   0.5
Tracy 8/31/26 0520 59.1   0.1 43   6 36.8   3.7 1.0   5.8 E | 89 2.7   7.1 NE | 50 0.00 16.2   0.1 80.6   0.6 0.00 58.9   2.1 69.7   0.7 9.3   3.0
Virginia Highlands 8/31/26 0520 60.3   4.0 37   1 33.7   2.7 0.0   0.0 N | 0 0.0   0.0 NNW | 330 0.00 8.0   0.1 74.7   0.4 0.00 60.0   5.6 64.1   3.9 4.2   0.6
Virginia City 8/31/26 0520 62.2   6.4 29   7 29.7   0.3 3.3   1.4 W | 266 4.5   3.6 W | 269 0.00 4.8   0.1 75.1   0.6 0.00 61.3   6.4 65.6   5.8 5.2   5.2
Six Mile Canyon 8/31/26 0520 58.8   2.7 42   1 35.6   1.9 1.8   0.5 N | 360 2.9   1.7 N | 10 0.00 12.4   0.1 78.6   1.3 0.00 58.3   3.8 67.0   1.3 5.2   5.0
Mt Rose Highway 8/31/26 0520 56.5   5.3 34   11 28.2   2.4 2.9   2.4 SW | 234 4.1   1.9 WSW | 246 0.00 7.5   0.0 62.9   0.7 0.00 56.2   5.8 58.2   3.6 8.2   4.2
Pleasant Valley 8/31/26 0520 52.9   4.0 56   1 37.4   3.1 1.3   0.4 SSW | 195 2.9   0.6 SW | 220 0.00 2.3   0.0 78.7   0.6 0.00 52.2   3.4 59.1   1.8 5.8   2.5
New Washoe City 8/31/26 0520 52.9   1.2 47   1 33.4   1.7 1.5   1.9 NE | 39 5.3   1.0 NE | 46 0.00 3.5   0.0 74.4   0.3 0.00 52.6   1.3 58.6   0.8 8.7   0.4
Franktown Creek 8/31/26 0520 52.0   3.4 55   1 36.4   2.8 0.5   0.4 WSW | 256 2.1   0.6 NW | 304 0.00 7.2   0.0 73.3   0.4 0.00 50.9   2.8 58.5   3.6 3.1   1.4
Musgrove Creek 8/31/26 0520 59.6   7.5 40   6 35.4   3.4 2.0   1.6 SSW | 206 3.0   0.7 SSW | 208 0.00 10.3   0.1 61.2   0.4 0.00 59.0   7.4 63.4   4.1 3.7   0.4
East Carson 11/23/24 0110 28.6   28.4 - - 4.7   11.0 SW | 220 14.7   10.1 SW | 219 0.02 - 50.9   0.1 0.02 -25.9   79.1 42.9   14.6 16.0   10.7
Kings Canyon 8/31/26 0520 52.6   1.8 52   5 35.5   4.3 3.1   2.3 S | 182 4.6   3.0 SSE | 163 0.00 4.1   0.1 69.8   0.1 0.00 52.1   3.1 59.6   2.6 7.0   2.6
Carson City (Voltaire Canyon) 8/31/26 0520 63.0   2.4 44   10 40.9   8.4 6.7   0.4 WSW | 240 9.4   0.7 WSW | 237 0.00 2.8   0.1 79.2   0.6 0.00 62.6   2.7 69.5   5.2 11.4   4.0
Jacks Valley 8/31/26 0520 55.6   1.8 55   10 39.6   6.6 0.0   1.0 N | 0 0.0   3.0 SSW | 200 0.00 4.5   0.1 76.3   3.1 0.00 55.3   2.2 63.0   2.7 4.1   2.9
Genoa 8/31/26 0520 56.7   3.4 53   4 39.6   5.2 0.0   0.0 N | 0 0.0   0.9 W | 260 0.00 2.2   0.2 66.0   3.0 0.00 56.5   3.4 64.0   3.8 2.2   0.9
South Genoa (Walleys Hot Springs) 8/31/26 0520 50.7   6.5 78   3 44.1   7.3 0.0   0.8 N | 0 0.0   4.1 ESE | 109 0.00 4.5   0.8 74.7   0.6 0.00 49.6   6.8 61.4   3.0 2.1   8.7
SW Gardnerville (HWY 88) 8/31/26 0520 49.9   1.9 73   4 41.5   3.3 3.7   2.9 SSW | 212 4.7   2.5 SSW | 213 0.00 2.8   0.0 70.7   0.0 0.00 46.8   3.5 61.7   3.8 6.0   4.2
Sheridan 8/31/26 0520 56.5   0.9 53   10 39.7   6.1 1.3   0.5 SW | 228 3.0   0.7 SW | 233 0.00 1.1   0.1 75.2   1.0 0.00 50.7   0.4 64.0   2.4 4.8   4.5
Ruhenstroth 8/31/26 0520 53.0   1.0 56   10 37.7   6.0 0.9   1.6 NE | 48 2.9   4.6 NE | 54 0.00 6.8   0.1 74.7   2.3 0.00 52.6   1.9 63.7   2.1 7.5   5.1
Double Spring 8/31/26 0520 47.0   4.4 71   7 38.0   6.8 2.5   1.2 NNW | 331 3.4   1.4 NNW | 328 0.00 25.6   0.1 72.0   2.8 0.00 46.6   5.1 56.2   1.2 5.3   0.9
North Topaz Lake 8/31/26 0520 62.8   1.8 38   12 36.5   11.2 2.2   1.5 SW | 233 3.7   0.5 SSW | 199 0.00 7.3   0.2 68.0   3.0 0.00 62.1   2.1 66.8   0.8 6.5   4.5
Wild Oat Mountain 8/31/26 0520 61.0   5.2 45   13 39.8   13.2 0.0   8.4 W | 260 0.9   11.9 W | 279 0.00 5.8   0.0 71.5   2.7 0.00 60.6   5.7 65.8   2.7 6.6   6.2
Smith Valley 8/31/26 0520 57.3   1.9 43   4 35.1   4.4 2.1   0.8 W | 274 3.7   1.1 WNW | 294 0.00 2.8   0.1 77.7   1.2 0.00 55.6   3.4 68.5   2.5 12.3   2.1
Pine Grove Mountain 8/31/26 0520 56.8   5.2 29   11 24.1   3.6 0.4   3.5 NNE | 31 1.7   5.2 NE | 35 0.00 7.4   0.3 65.0   1.3 0.00 55.7   4.1 58.0   1.3 7.9   3.6
Paradise Hill 8/31/26 0520 44.3   6.3 44   4 23.9   3.7 1.7   1.7 SW | 226 3.2   3.2 SSE | 163 0.00 10.2   0.1 73.3   0.7 0.00 43.8   6.1 66.0   2.5 15.8   4.5
Winnemucca 8/31/26 0520 52.9   2.5 34   1 25.5   1.8 5.4   0.4 NE | 48 8.6   1.4 NE | 47 0.00 5.8   0.0 75.8   0.1 0.00 50.5   0.9 62.3   0.7 12.2   3.5
NE Elko 8/31/26 0520 43.6   4.8 45   12 23.9   10.1 2.7   2.2 ENE | 63 4.6   2.7 ENE | 71 0.00 5.7   0.0 71.1   0.7 0.00 42.5   5.6 49.9   6.8 5.8   2.7
North Elko 8/31/26 0520 56.1   0.8 32   9 26.9   5.2 1.2   1.6 NNE | 29 2.6   5.8 NNE | 28 0.00 25.0   0.1 73.2   0.4 0.00 55.1   0.1 62.4   4.0 10.7   8.3
South Elko 8/31/26 0520 58.2   12.4 35   11 30.9   18.0 2.1   1.1 SE | 135 4.6   0.1 S | 180 0.00 13.8   0.0 69.1   0.2 0.00 56.1   2.6 63.2   36.6 11.7   2.4
Lamoille 8/31/26 0520 53.9   2.2 35   14 26.7   6.4 3.0   1.3 SE | 130 4.5   1.5 SE | 130 0.00 6.5   0.1 67.4   0.8 0.00 48.4   2.4 54.5   10.8 7.9   6.7
Reid Gardner Sub 8/31/26 0520 72.7   16.8 32   4 40.9   11.1 3.0   6.1 NW | 310 4.1   9.1 WNW | 285 0.00 26.1   1.2 90.2   1.9 0.00 69.3   19.9 78.5   15.2 5.7   16.0
Corn Creek 8/31/26 0520 76.4   6.5 32   4 44.1   1.6 5.4   1.9 SE | 141 7.2   2.6 ESE | 116 0.00 3.1   0.1 89.5   4.4 0.00 73.8   8.9 82.4   7.0 8.2   6.0
Lucky Strike 8/31/26 0520 70.2   4.8 35   7 41.5   1.3 5.2   1.0 SSE | 166 8.2   1.2 S | 171 0.00 3.2   0.1 81.3   4.3 0.00 70.1   3.6 75.1   4.1 11.8   4.7
Lower Angel Peak 8/31/26 0520 67.0   0.3 39   4 41.5   2.9 4.8   2.4 SSE | 150 9.1   1.7 SSE | 156 0.00 3.2   0.0 74.8   3.0 0.00 61.8   4.8 68.8   3.7 9.9   3.6
Angel Peak 8/31/26 0520 55.6   3.7 52   11 38.5   2.5 12.3   2.3 ESE | 122 17.8   0.9 ESE | 121 0.00 2.5   0.0 64.8   3.2 0.00 55.4   2.7 59.5   2.8 25.3   0.8
Upper Kyle Canyon 8/31/26 0520 62.9   0.3 39   5 37.5   3.4 5.3   0.1 ENE | 63 12.4   5.5 E | 83 0.00 7.8   0.0 76.3   1.2 0.00 62.1   0.2 65.2   0.1 19.6   11.3
Mt Charleston 8/31/26 0520 60.4   1.0 45   6 38.7   2.5 2.1   0.3 SSW | 198 6.0   0.1 S | 178 0.00 13.4   0.1 69.5   1.2 0.00 59.2   1.3 65.9   0.1 10.6   17.4
Mid Kyle Canyon 8/31/26 0520 64.3   5.0 42   11 41.0   2.9 1.0   1.9 NE | 50 3.6   3.7 ENE | 77 0.00 5.9   0.0 75.3   3.2 0.00 60.9   6.2 68.4   3.6 11.6   9.6
Blue Diamond 8/31/26 0520 71.1   11.9 38   11 44.3   1.0 1.5   7.3 WSW | 243 3.2   16.8 WNW | 286 0.00 1.2   0.1 87.3   2.5 0.00 70.8   10.8 82.9   2.4 6.8   13.2
Artesian Sub 8/31/26 0520 83.1   7.6 28   4 47.1   2.6 0.2   4.0 NNW | 341 2.2   7.3 NNE | 15 0.00 11.8   0.0 94.6   0.1 0.00 82.1   8.4 87.4   7.6 9.2   8.0
North Henderson 8/31/26 0520 84.9   7.0 35   9 54.5   2.3 1.6   4.2 W | 276 3.4   6.7 W | 275 0.00 10.5   0.1 99.4   0.7 0.00 84.4   7.0 91.8   3.7 9.4   9.2
Sandy Valley 8/31/26 0520 78.3   5.0 37   8 49.8   2.0 3.0   1.4 NNE | 31 6.3   1.9 NNE | 26 0.00 8.7   0.3 91.1   2.1 0.00 77.5   4.4 83.3   3.0 9.7   4.0
Searchlight 8/31/26 0520 74.4   5.6 54   16 56.5   4.6 5.2   2.4 SW | 226 8.9   3.7 SW | 220 0.00 6.2   0.1 90.1   1.4 0.00 72.9   6.9 77.5   6.3 8.9   12.4
Laughlin 8/31/26 0520 91.0   0.7 44   12 65.9   8.1 6.4   5.7 SW | 215 9.9   7.6 SW | 228 0.00 4.6   0.1 103.0   1.2 0.00 89.6   1.8 93.4   6.0 14.3   6.5
31Mission Hills 8/31/26 0520 81.9   4.8 37   9 53.1   3.7 6.6   1.9 SSE | 168 9.1   0.9 S | 186 0.00 7.4   0.0 90.2   2.3 0.00 81.6   4.8 86.9   4.1 14.8   4.7
32 Enterprise Sierra Cliffs 8/31/26 0520 81.0   2.6 27   3 44.1   1.1 7.2   11.0 SSE | 167 14.4   11.9 SSE | 167 0.00 1.4   0.1 86.3   4.1 0.00 78.0   5.5 85.1   2.6 18.4   12.9
29 Calico Basin 8/31/26 0520 76.3   6.9 28   7 40.5   1.3 10.0   7.8 WNW | 282 11.8   14.4 WNW | 283 0.00 2.7   0.2 87.5   2.4 0.00 75.4   6.2 83.2   0.9 13.4   12.8
28 Indian Springs 8/31/26 0520 71.3   13.7 28   9 36.7   1.6 2.5   4.8 ENE | 78 3.4   13.8 E | 87 0.00 4.8   0.1 89.8   2.4 0.00 70.8   13.3 78.0   9.7 7.2   14.4
30 Jean 8/31/26 0520 74.1   7.4 34   7 43.7   0.3 3.7   4.0 SSW | 196 6.7   6.5 SSE | 161 0.00 5.4   0.2 87.2   3.2 0.00 73.6   6.6 83.0   2.3 16.0   1.2
VC Highlands NW 8/31/26 0520 59.7   6.6 35   4 31.8   3.4 1.1   0.3 S | 183 1.6   0.2 S | 190 0.00 1.6   0.0 65.7   1.4 0.00 59.6   7.0 62.3   5.0 2.5   3.1
Glenbrook-Spooner Summit 8/31/26 0520 48.0   5.1 66   8 37.0   7.9 2.1   0.4 W | 265 3.4   0.0 WSW | 257 0.00 7.8   0.1 66.8   2.1 0.00 47.9   5.1 50.8   1.2 4.8   0.2
Hobo Hot Springs 8/31/26 0520 49.1   4.5 77   8 42.1   7.1 0.0   0.8 NNW | 336 1.1   1.2 NNW | 336 0.00 1.0   0.1 71.1   0.3 0.00 46.9   5.3 54.4   8.1 3.2   5.5
Jack Valley Ranch 2 8/31/26 0520 58.6   3.9 42   1 35.4   4.4 7.1   4.1 N | 352 9.8   4.2 N | 350 0.00 2.2   0.1 76.8   1.2 0.00 56.1   3.3 62.7   1.3 9.9   3.4
Genoa North 2 8/31/26 0520 57.5   3.5 48   10 37.9   9.2 1.5   0.5 WNW | 285 2.4   0.9 WNW | 290 0.00 0.8   0.0 76.6   2.2 0.00 56.9   3.5 63.6   2.9 5.7   6.1
Mottsville 2 8/31/26 0520 51.4   1.6 64   12 39.5   6.9 0.1   0.6 SW | 231 0.9   3.2 SW | 231 0.00 1.2   0.1 74.7   0.8 0.00 48.8   0.9 61.2   2.9 3.4   7.5
Kingsbury Village 3 8/31/26 0520 50.4   4.4 44   9 29.5   9.2 2.7   0.0 NNE | 26 3.5   0.1 NE | 35 0.00 3.1   0.0 62.4   0.6 0.00 50.1   4.1 55.7   2.6 4.0   3.7
Kingsbury-Benjamin Dr 2 8/31/26 0520 53.6   3.8 44   9 32.0   8.9 0.1   0.1 W | 279 1.1   1.1 W | 279 0.00 3.5   0.2 70.0   2.9 0.00 53.4   4.1 55.6   1.3 2.0   3.7
Smith Valley-Wellington 8/31/26 0520 57.0   8.8 47   6 37.3   5.2 4.4   4.2 SSW | 202 9.4   7.7 SW | 227 0.00 3.6   0.0 81.6   0.5 0.00 56.2   8.2 64.0   0.1 14.0   0.7
Sheridan South 2 8/31/26 0520 55.3   6.1 57   2 40.5   6.7 0.0   0.3 N | 0 0.0   1.5 WSW | 250 0.00 0.5   0.0 74.7   1.7 0.00 52.2   5.9 59.7   0.6 2.9   4.8
Silver Springs 8/31/26 0520 61.9   3.5 26   17 27.1   9.3 1.5   1.7 ENE | 58 3.0   1.5 ENE | 64 0.00 5.1   0.0 81.1   0.8 0.00 59.7   2.3 67.2   1.5 4.8   8.9
Fernley 8/31/26 0520 57.9   3.2 29   7 26.2   2.3 5.2   0.3 SSW | 194 6.7   1.0 S | 185 0.00 3.1   0.1 75.1   1.5 0.00 57.4   4.0 63.6   0.9 9.6   1.1
Spanish Springs 8/31/26 0520 50.3   2.8 56   0 35.1   2.7 1.1   1.1 E | 82 1.5   1.5 ENE | 76 0.00 10.6   0.0 78.3   0.9 0.00 50.2   2.8 57.8   5.0 2.6   4.8
Suttcliffe South 2 8/31/26 0520 53.8   3.1 38   5 28.6   0.3 6.1   1.8 WSW | 246 9.4   2.0 WSW | 242 0.00 4.4   0.0 72.7   1.1 0.00 53.1   4.6 60.6   3.1 9.7   0.5
Lemmon Valley North 8/31/26 0520 42.0   1.9 52   3 25.7   0.4 0.0   0.3 WSW | 256 0.5   1.0 WSW | 256 0.00 2.1   0.0 73.2   0.9 0.00 41.2   2.1 52.8   1.6 4.2   1.0
Lemmon Valley NW 3 8/31/26 0520 49.6   5.6 48   2 30.9   4.3 1.6   1.3 NNE | 22 3.0   0.5 NNE | 12 0.00 1.3   0.1 73.6   2.0 0.00 47.4   3.9 58.1   1.9 7.0   0.2
VC Highlands North 8/31/26 0520 46.9   5.6 51   9 29.8   1.1 0.0   0.0 N | 0 0.0   0.0 NNW | 332 0.00 4.7   0.2 64.6   2.5 0.00 46.8   5.9 50.9   0.1 1.2   2.1
Upper Voltaire Cyn 8/31/26 0520 60.2   2.4 44   12 38.4   10.2 1.7   7.3 NNW | 345 3.0   9.2 NNW | 334 0.00 1.1   0.1 73.6   2.1 0.00 59.8   2.8 66.5   4.1 6.7   5.5
Yerington NW 8/31/26 0520 50.3   0.6 61   1 37.2   1.0 0.7   0.5 SW | 214 2.5   0.2 SW | 227 0.00 7.2   0.1 74.6   1.5 0.00 49.9   1.6 64.0   4.6 7.7   2.5
Spanish Springs SW 8/31/26 0520 56.0   2.6 38   2 30.7   1.0 1.9   0.4 W | 270 2.9   0.5 W | 266 0.00 1.5   0.1 75.9   1.9 0.00 55.1   5.2 63.5   2.8 3.6   3.2
Cosgrave 2 8/27/26 0750 62.9   4.1 34   3 33.8   1.4 2.6   0.5 WSW | 246 4.1   1.0 W | 267 0.00 3.8   0.1 77.4   2.9 0.00 62.7   3.3 77.4   3.5 11.2   3.9
Winnemucca-Grass Valley 2 8/31/26 0520 41.0   3.7 69   4 31.6   2.1 2.0   3.1 SE | 140 3.6   2.6 SE | 142 0.00 7.9   0.1 64.4   0.9 0.00 40.4   3.1 51.1   11.6 9.1   1.7
Winnemucca-Dutch Flat Rd 8/31/26 0520 52.4   2.0 33   3 24.4   3.7 4.1   1.6 N | 357 7.7   1.6 N | 0 0.00 6.1   0.1 73.0   0.3 0.00 51.7   2.1 63.8   0.6 13.3   4.2
Paradise Valley 2 8/31/26 0520 41.6   2.8 50   5 24.4   5.1 2.0   0.5 SE | 128 4.7   2.2 SE | 126 0.00 12.9   0.0 72.3   0.6 0.00 40.3   4.0 56.4   1.6 8.4   1.4
Golconda 2 8/31/26 0520 52.8   0.1 34   5 25.5   3.4 5.9   0.0 W | 262 6.8   2.9 WSW | 245 0.00 1.8   0.1 71.4   0.4 0.00 51.0   0.7 63.4   1.1 11.3   5.7
Battle Mountain - South 8/31/26 0520 43.7   5.1 38   4 19.6   6.9 3.8   2.2 SW | 224 5.5   1.6 SW | 226 0.00 9.1   0.1 74.5   0.6 0.00 41.9   6.5 51.5   12.2 6.2   4.7
Geiger Summit 8/31/26 0520 58.0   5.7 100   0 58.1   5.8 0.4   1.7 ESE | 121 1.5   2.6 ESE | 108 0.00 6.4   0.1 64.0   1.1 0.00 57.6   5.4 61.8   5.3 4.1   3.0
Combs Canyon 3 8/31/26 0520 57.1   2.6 45   12 36.2   5.0 1.5   8.4 WNW | 293 4.0   8.9 WNW | 295 0.00 1.0   0.1 75.2   1.7 0.00 56.8   0.6 64.2   2.5 7.9   9.4
Clear Creek 8/31/26 0520 55.1   4.6 45   1 34.2   4.9 0.1   0.6 SE | 126 1.4   3.1 SE | 134 0.00 3.4   0.0 72.6   1.3 0.00 53.6   4.5 59.6   0.4 3.6   2.2
Eastlake 2 8/31/26 0520 51.0   5.6 64   1 39.1   5.0 0.0   1.2 N | 0 0.0   2.6 W | 270 0.00 3.5   0.0 74.8   0.5 0.00 49.8   4.8 58.5   1.4 3.7   3.4
Lovelock-Colado 2 8/31/26 0520 61.6   14.3 22   22 22.8   4.0 8.2   5.0 NE | 34 13.0   8.3 NE | 38 0.00 - 76.7   0.9 0.00 52.1   5.3 64.6   3.2 18.8   7.6
Spanish Springs NW 8/31/26 0520 50.3   0.7 52   0 33.4   0.8 1.1   0.2 NW | 325 2.7   0.4 NW | 318 0.00 12.7   0.1 69.9   0.1 0.00 50.0   1.6 59.7   3.4 4.2   3.2
Battle Mountain NW 8/31/26 0520 53.0   3.3 29   2 22.0   1.4 4.8   1.4 WSW | 249 6.8   3.2 WSW | 253 0.00 9.0   0.1 76.8   0.1 0.00 51.7   4.2 60.0   7.1 11.2   2.8
Austin 2 8/31/26 0420 40.3   6.3 41   6 18.7   9.0 2.3   0.8 SW | 233 2.9   0.9 WSW | 239 0.00 2.1   0.1 61.4   2.4 0.00 37.9   8.1 46.9   14.5 7.8   2.0
Elko-Osino 8/31/26 0520 44.9   7.8 40   8 22.0   11.8 1.1   2.2 NNW | 338 2.6   4.2 NW | 326 0.00 1.4   0.0 75.9   0.5 0.00 44.7   5.5 56.7   3.1 10.6   0.9
Elko-Bill Fishpond 2 8/31/26 0520 48.1   2.5 40   9 25.1   7.1 3.6   1.0 SE | 138 5.0   1.6 SE | 141 0.00 3.5   0.0 67.6   3.1 0.00 42.6   6.9 49.8   13.5 8.6   5.0
Spring Creek SE 2 8/31/26 0520 47.3 43 25.9 0.8 NW | 316 2.6 N | 11 0.00 0.4 69.8 0.00 45.9 58.3 11.8
Spring Creek NW 8/31/26 0520 50.1 37 24.8 2.9 SW | 234 4.8 WSW | 241 0.00 2.2 72.6 0.00 47.9 60.4 7.6
Max     91.0 100 65.9 12.3 - 17.8 - 0.00 42.8 103.0 0.00 89.6 93.4 25.3
Avg     57.3 46 35.7 2.6 - 4.4 - 0.00 6.8 73.2 - - - -
Min     40.1 22 18.7 0.0 - 0.0 - 0.00 0.0 0.0 0.00 37.9 46.9 1.2